createdAt,value
2017-07-16T00:00:52.634Z,79.40
2017-07-16T00:03:21.101Z,78.90
2017-07-16T00:05:48.645Z,78.20
2017-07-16T00:08:16.165Z,78.60
2017-07-16T00:10:43.714Z,79.70
2017-07-16T00:13:11.308Z,80.10
2017-07-16T00:15:38.853Z,80.30
2017-07-16T00:18:06.393Z,79.70
2017-07-16T00:20:34.081Z,80.50
2017-07-16T00:23:01.655Z,80.60
2017-07-16T00:25:29.172Z,79.10
2017-07-16T00:27:56.693Z,78.70
2017-07-16T00:30:24.437Z,78.90
2017-07-16T00:32:51.973Z,80.50
2017-07-16T00:35:19.580Z,79.40
2017-07-16T00:37:47.150Z,79.60
2017-07-16T00:40:15.555Z,79.60
2017-07-16T00:42:43.897Z,80.40
2017-07-16T00:45:11.461Z,80.90
2017-07-16T00:47:38.972Z,78.40
2017-07-16T00:50:06.520Z,79.80
2017-07-16T00:52:34.932Z,82.80
2017-07-16T00:55:02.509Z,82.60
2017-07-16T00:57:30.033Z,80.20
2017-07-16T00:59:57.589Z,80.60
2017-07-16T01:02:25.136Z,82.30
2017-07-16T01:04:52.697Z,81.70
2017-07-16T01:07:20.973Z,78.50
2017-07-16T01:09:49.301Z,81.50
2017-07-16T01:12:16.816Z,81.50
2017-07-16T01:14:44.353Z,80.60
2017-07-16T01:17:11.984Z,81.20
2017-07-16T01:19:39.543Z,81.30
2017-07-16T01:22:07.055Z,80.80
2017-07-16T01:24:35.620Z,81.60
2017-07-16T01:27:03.320Z,81.50
2017-07-16T01:29:30.836Z,83.90
2017-07-16T01:31:58.534Z,83.20
2017-07-16T01:34:26.236Z,81.70
2017-07-16T01:36:53.784Z,81.10
2017-07-16T01:39:21.377Z,81.70
2017-07-16T01:41:48.940Z,81.50
2017-07-16T01:44:16.456Z,80.60
2017-07-16T01:46:44.071Z,81.30
2017-07-16T01:49:11.796Z,82.50
2017-07-16T01:51:39.356Z,83.20
2017-07-16T01:54:06.917Z,81.90
2017-07-16T01:56:34.438Z,81.90
2017-07-16T01:59:01.963Z,83.20
2017-07-16T02:01:29.521Z,83.70
2017-07-16T02:03:57.221Z,84.10
2017-07-16T02:06:25.513Z,83.80
2017-07-16T02:08:53.084Z,83.60
2017-07-16T02:11:20.610Z,82.80
2017-07-16T02:13:48.908Z,83.70
2017-07-16T02:16:16.698Z,83.50
2017-07-16T02:18:44.414Z,84.10
2017-07-16T02:21:12.738Z,84.30
2017-07-16T02:23:40.264Z,84.10
2017-07-16T02:26:08.604Z,83.00
2017-07-16T02:28:36.121Z,82.80
2017-07-16T02:31:03.852Z,83.30
2017-07-16T02:33:31.441Z,83.30
2017-07-16T02:35:59.076Z,83.70
2017-07-16T02:38:26.696Z,84.80
2017-07-16T02:40:54.518Z,83.80
2017-07-16T02:43:22.845Z,86.10
2017-07-16T02:45:50.556Z,86.00
2017-07-16T02:48:18.893Z,84.60
2017-07-16T02:50:46.433Z,84.60
2017-07-16T02:53:13.950Z,84.40
2017-07-16T02:55:42.376Z,84.50
2017-07-16T02:58:09.893Z,83.80
2017-07-16T03:00:38.301Z,82.20
2017-07-16T03:03:05.898Z,81.50
2017-07-16T03:05:33.420Z,83.70
2017-07-16T03:08:00.940Z,84.30
2017-07-16T03:10:28.506Z,81.70
2017-07-16T03:12:56.028Z,83.70
2017-07-16T03:15:23.723Z,83.80
2017-07-16T03:17:51.374Z,84.90
2017-07-16T03:20:18.941Z,83.10
2017-07-16T03:22:46.506Z,84.70
2017-07-16T03:25:37.617Z,85.00
2017-07-16T03:28:05.126Z,83.90
2017-07-16T03:30:32.653Z,83.60
2017-07-16T03:33:00.991Z,83.80
2017-07-16T03:35:28.590Z,83.00
2017-07-16T03:37:56.885Z,83.90
2017-07-16T03:40:25.281Z,84.50
2017-07-16T03:42:53.013Z,84.30
2017-07-16T03:45:20.524Z,83.40
2017-07-16T03:47:48.116Z,83.30
2017-07-16T03:50:15.729Z,84.00
2017-07-16T03:52:43.512Z,84.70
2017-07-16T03:55:11.186Z,83.70
2017-07-16T03:57:38.759Z,84.10
2017-07-16T04:00:06.377Z,84.60
2017-07-16T04:02:33.947Z,84.60
2017-07-16T04:05:01.503Z,84.50
2017-07-16T04:07:29.016Z,83.40
2017-07-16T04:09:56.629Z,82.70
2017-07-16T04:12:24.141Z,83.50
2017-07-16T04:14:51.674Z,84.40
2017-07-16T04:17:19.242Z,85.80
2017-07-16T04:19:46.784Z,87.10
2017-07-16T04:22:14.300Z,87.40
2017-07-16T04:24:42.627Z,86.70
2017-07-16T04:27:10.153Z,86.60
2017-07-16T04:29:37.673Z,85.70
2017-07-16T04:32:05.245Z,85.80
2017-07-16T04:34:32.822Z,85.60
2017-07-16T04:37:00.487Z,85.90
2017-07-16T04:39:28.804Z,85.20
2017-07-16T04:41:56.326Z,85.00
2017-07-16T04:44:24.644Z,85.40
2017-07-16T04:46:52.237Z,84.60
2017-07-16T04:49:19.833Z,84.50
2017-07-16T04:51:47.422Z,84.00
2017-07-16T04:54:14.944Z,83.20
2017-07-16T04:56:43.262Z,83.50
2017-07-16T04:59:10.816Z,83.50
2017-07-16T05:01:38.484Z,83.90
2017-07-16T05:04:06.090Z,81.60
2017-07-16T05:06:33.640Z,81.20
2017-07-16T05:09:01.197Z,80.40
2017-07-16T05:11:28.708Z,79.40
2017-07-16T05:13:56.335Z,79.80
2017-07-16T05:16:23.893Z,80.40
2017-07-16T05:18:51.411Z,80.50
2017-07-16T05:21:18.932Z,77.90
2017-07-16T05:23:46.546Z,81.70
2017-07-16T05:26:14.112Z,80.60
2017-07-16T05:28:41.629Z,80.90
2017-07-16T05:31:09.480Z,78.30
2017-07-16T05:33:37.754Z,77.80
2017-07-16T05:36:06.065Z,75.10
2017-07-16T05:38:33.667Z,75.00
2017-07-16T05:41:01.248Z,76.10
2017-07-16T05:43:28.986Z,75.40
2017-07-16T05:45:56.549Z,76.90
2017-07-16T05:48:24.064Z,77.00
2017-07-16T05:50:51.657Z,76.80
2017-07-16T05:53:19.212Z,78.20
2017-07-16T05:55:46.763Z,77.90
2017-07-16T05:58:14.381Z,77.10
2017-07-16T06:00:41.900Z,74.20
2017-07-16T06:03:09.515Z,74.20
2017-07-16T06:05:37.085Z,74.00
2017-07-16T06:08:04.680Z,74.50
2017-07-16T06:10:32.232Z,76.00
2017-07-16T06:13:00.356Z,77.10
2017-07-16T06:15:27.882Z,76.90
2017-07-16T06:17:55.530Z,72.60
2017-07-16T06:20:23.101Z,72.70
2017-07-16T06:22:50.750Z,72.20
2017-07-16T06:25:18.310Z,72.50
2017-07-16T06:27:45.894Z,75.30
2017-07-16T06:30:13.499Z,71.00
2017-07-16T06:32:41.169Z,69.90
2017-07-16T06:35:08.754Z,70.20
2017-07-16T06:37:36.411Z,73.50
2017-07-16T06:40:03.983Z,68.10
2017-07-16T06:42:31.545Z,67.10
2017-07-16T06:44:59.073Z,68.90
2017-07-16T06:47:26.625Z,67.40
2017-07-16T06:49:54.933Z,66.90
2017-07-16T06:52:22.504Z,66.90
2017-07-16T06:54:50.078Z,65.00
2017-07-16T06:57:17.714Z,67.10
2017-07-16T06:59:45.246Z,64.90
2017-07-16T07:02:12.832Z,64.70
2017-07-16T07:04:40.472Z,60.40
2017-07-16T07:07:08.026Z,59.40
2017-07-16T07:09:36.356Z,61.20
2017-07-16T07:12:03.981Z,61.20
2017-07-16T07:14:31.497Z,61.00
2017-07-16T07:16:59.073Z,59.70
2017-07-16T07:19:26.596Z,58.90
2017-07-16T07:21:54.115Z,58.50
2017-07-16T07:24:22.463Z,58.00
2017-07-16T07:26:49.984Z,58.00
2017-07-16T07:29:17.591Z,59.20
2017-07-16T07:31:45.140Z,59.50
2017-07-16T07:34:12.657Z,58.00
2017-07-16T07:36:40.243Z,56.50
2017-07-16T07:39:08.697Z,54.60
2017-07-16T07:41:36.241Z,54.60
2017-07-16T07:44:04.555Z,54.90
2017-07-16T07:46:32.092Z,54.80
2017-07-16T07:48:59.656Z,56.40
2017-07-16T07:51:27.321Z,56.90
2017-07-16T07:53:57.355Z,57.10
2017-07-16T07:56:29.889Z,55.90
2017-07-16T07:58:57.613Z,54.80
2017-07-16T08:01:26.640Z,53.60
2017-07-16T08:03:55.004Z,54.30
2017-07-16T08:06:22.657Z,54.60
2017-07-16T08:08:50.326Z,52.80
2017-07-16T08:11:18.748Z,53.00
2017-07-16T08:13:47.325Z,53.00
2017-07-16T08:16:17.190Z,53.80
2017-07-16T08:18:46.242Z,53.40
2017-07-16T08:21:14.013Z,54.10
2017-07-16T08:23:44.789Z,55.50
2017-07-16T08:26:12.771Z,56.70
2017-07-16T08:28:41.831Z,55.90
2017-07-16T08:31:10.283Z,53.40
2017-07-16T08:33:40.152Z,53.90
2017-07-16T08:36:08.877Z,48.30
2017-07-16T08:38:38.537Z,44.40
2017-07-16T08:41:08.316Z,49.60
2017-07-16T08:43:38.663Z,50.10
2017-07-16T08:46:07.849Z,46.40
2017-07-16T08:48:36.124Z,46.30
2017-07-16T08:51:04.730Z,45.20
2017-07-16T08:53:32.897Z,44.40
2017-07-16T08:56:01.087Z,48.90
2017-07-16T08:58:29.349Z,47.10
2017-07-16T09:00:57.654Z,46.70
2017-07-16T09:03:26.142Z,42.20
2017-07-16T09:05:54.427Z,45.90
2017-07-16T09:08:22.623Z,45.70
2017-07-16T09:10:51.301Z,46.90
2017-07-16T09:13:19.658Z,49.10
2017-07-16T09:15:48.971Z,49.00
2017-07-16T09:18:18.625Z,47.80
2017-07-16T09:20:50.024Z,47.70
2017-07-16T09:23:19.253Z,47.20
2017-07-16T09:25:47.850Z,47.30
2017-07-16T09:28:16.939Z,48.70
2017-07-16T09:30:45.911Z,47.30
2017-07-16T09:33:16.823Z,48.60
2017-07-16T09:35:46.025Z,49.80
2017-07-16T09:38:14.229Z,49.00
2017-07-16T09:40:43.279Z,49.10
2017-07-16T09:43:12.654Z,49.70
2017-07-16T09:45:42.189Z,47.30
2017-07-16T09:50:59.650Z,47.60
2017-07-16T09:53:27.802Z,47.70
2017-07-16T09:55:55.994Z,44.20
2017-07-16T09:58:24.149Z,45.40
2017-07-16T10:00:52.263Z,43.90
2017-07-16T10:03:21.889Z,45.70
2017-07-16T10:05:50.990Z,41.90
2017-07-16T10:08:24.478Z,42.70
2017-07-16T10:10:54.949Z,45.40
2017-07-16T10:13:24.246Z,45.40
2017-07-16T10:15:54.392Z,43.80
2017-07-16T10:18:24.349Z,43.80
2017-07-16T10:20:53.904Z,42.50
2017-07-16T10:23:22.197Z,42.50
2017-07-16T10:25:52.057Z,45.00
2017-07-16T10:28:21.363Z,45.30
2017-07-16T10:30:50.779Z,44.00
2017-07-16T10:33:19.545Z,43.20
2017-07-16T10:35:47.745Z,44.30
2017-07-16T10:38:16.578Z,41.80
2017-07-16T10:40:44.785Z,41.30
2017-07-16T10:43:13.474Z,39.30
2017-07-16T10:45:43.113Z,42.40
2017-07-16T10:48:13.179Z,39.80
2017-07-16T10:50:41.437Z,41.90
2017-07-16T10:53:10.057Z,39.70
2017-07-16T10:55:38.628Z,40.20
2017-07-16T10:58:08.868Z,40.10
2017-07-16T11:00:37.268Z,40.80
2017-07-16T11:03:06.988Z,33.90
2017-07-16T11:05:35.454Z,38.60
2017-07-16T11:08:04.814Z,38.70
2017-07-16T11:10:34.719Z,38.50
2017-07-16T11:13:02.858Z,38.40
2017-07-16T11:15:31.155Z,37.80
2017-07-16T11:18:00.356Z,38.90
2017-07-16T11:20:29.286Z,38.40
2017-07-16T11:22:58.178Z,38.30
2017-07-16T11:25:27.175Z,41.80
2017-07-16T11:27:55.151Z,41.70
2017-07-16T11:30:23.471Z,41.10
2017-07-16T11:32:52.375Z,42.10
2017-07-16T11:35:21.833Z,41.70
2017-07-16T11:37:50.958Z,44.00
2017-07-16T11:40:19.955Z,42.60
2017-07-16T11:42:49.185Z,40.80
2017-07-16T11:45:17.902Z,38.20
2017-07-16T11:47:48.349Z,38.80
2017-07-16T11:50:16.786Z,39.30
2017-07-16T11:52:45.033Z,36.00
2017-07-16T11:55:14.174Z,36.30
2017-07-16T11:57:42.602Z,38.60
2017-07-16T12:00:10.839Z,38.40
2017-07-16T12:02:39.410Z,37.30
2017-07-16T12:05:07.752Z,31.60
2017-07-16T12:07:36.545Z,33.20
2017-07-16T12:10:04.780Z,32.60
2017-07-16T12:12:33.365Z,36.10
2017-07-16T12:15:01.458Z,34.90
2017-07-16T12:17:29.107Z,40.80
2017-07-16T12:19:56.796Z,38.90
2017-07-16T12:22:24.361Z,39.70
2017-07-16T12:24:51.876Z,37.90
2017-07-16T12:27:19.388Z,41.30
2017-07-16T12:29:47.061Z,41.00
2017-07-16T12:32:14.722Z,37.10
2017-07-16T12:34:42.240Z,40.00
2017-07-16T12:37:10.469Z,44.20
2017-07-16T12:39:37.988Z,45.10
2017-07-16T12:42:06.827Z,46.60
2017-07-16T12:44:34.384Z,43.00
2017-07-16T12:47:01.937Z,42.80
2017-07-16T12:49:29.469Z,39.60
2017-07-16T12:51:57.956Z,43.90
2017-07-16T12:54:25.477Z,44.00
2017-07-16T12:56:53.047Z,45.40
2017-07-16T12:59:20.592Z,42.90
2017-07-16T13:01:48.156Z,46.10
2017-07-16T13:04:15.670Z,42.80
2017-07-16T13:06:43.184Z,43.80
2017-07-16T13:09:10.728Z,41.50
2017-07-16T13:11:38.296Z,42.30
2017-07-16T13:14:05.809Z,44.60
2017-07-16T13:16:33.339Z,41.30
2017-07-16T13:19:00.894Z,39.40
2017-07-16T13:21:29.173Z,39.80
2017-07-16T13:23:57.487Z,39.90
2017-07-16T13:26:25.064Z,39.90
2017-07-16T13:28:52.585Z,39.90
2017-07-16T13:31:20.895Z,40.00
2017-07-16T13:33:48.452Z,39.90
2017-07-16T13:36:15.965Z,39.70
2017-07-16T13:38:44.258Z,40.50
2017-07-16T13:41:12.628Z,39.60
2017-07-16T13:43:41.090Z,38.90
2017-07-16T13:46:08.717Z,38.90
2017-07-16T13:48:37.088Z,41.00
2017-07-16T13:51:04.742Z,41.10
2017-07-16T13:53:32.270Z,43.40
2017-07-16T13:56:00.572Z,41.20
2017-07-16T13:58:28.131Z,41.60
2017-07-16T14:00:55.858Z,41.70
2017-07-16T14:03:23.372Z,40.20
2017-07-16T14:05:50.952Z,41.60
2017-07-16T14:08:18.560Z,40.30
2017-07-16T14:10:46.864Z,42.50
2017-07-16T14:13:14.417Z,42.50
2017-07-16T14:15:41.944Z,41.60
2017-07-16T14:18:09.465Z,40.70
2017-07-16T14:20:37.017Z,41.40
2017-07-16T14:23:04.547Z,42.40
2017-07-16T14:25:32.137Z,41.80
2017-07-16T14:27:59.654Z,41.60
2017-07-16T14:30:27.298Z,44.20
2017-07-16T14:32:54.852Z,41.00
2017-07-16T14:35:22.457Z,43.20
2017-07-16T14:37:49.976Z,39.10
2017-07-16T14:40:17.492Z,39.80
2017-07-16T14:42:45.050Z,43.00
2017-07-16T14:45:12.578Z,41.80
2017-07-16T14:47:40.095Z,39.30
2017-07-16T14:50:07.667Z,41.90
2017-07-16T14:52:35.184Z,40.20
2017-07-16T14:55:02.703Z,38.40
2017-07-16T14:57:30.260Z,38.70
2017-07-16T14:59:57.773Z,40.40
2017-07-16T15:02:26.052Z,40.50
2017-07-16T15:04:53.602Z,39.60
2017-07-16T15:07:21.225Z,38.20
2017-07-16T15:09:48.955Z,37.90
2017-07-16T15:12:16.505Z,40.50
2017-07-16T15:14:44.029Z,40.20
2017-07-16T15:17:12.093Z,39.90
2017-07-16T15:19:40.465Z,38.20
2017-07-16T15:22:08.175Z,38.10
2017-07-16T15:24:35.704Z,39.00
2017-07-16T15:27:03.985Z,41.20
2017-07-16T15:29:31.593Z,41.20
2017-07-16T15:31:59.108Z,41.40
2017-07-16T15:34:26.629Z,38.80
2017-07-16T15:36:54.365Z,37.80
2017-07-16T15:39:21.909Z,41.00
2017-07-16T15:41:49.524Z,43.50
2017-07-16T15:44:17.231Z,42.30
2017-07-16T15:46:44.804Z,43.20
2017-07-16T15:49:12.377Z,42.30
2017-07-16T15:51:39.904Z,42.90
2017-07-16T15:54:07.472Z,43.60
2017-07-16T15:56:35.140Z,42.90
2017-07-16T15:59:02.697Z,42.10
2017-07-16T16:01:30.223Z,42.10
2017-07-16T16:03:57.794Z,42.10
2017-07-16T16:06:25.426Z,40.20
2017-07-16T16:08:53.054Z,39.50
2017-07-16T16:11:20.828Z,41.60
2017-07-16T16:13:48.381Z,42.70
2017-07-16T16:16:15.904Z,43.00
2017-07-16T16:18:44.253Z,43.50
2017-07-16T16:21:11.764Z,43.40
2017-07-16T16:23:39.286Z,41.80
2017-07-16T16:26:06.830Z,41.20
2017-07-16T16:28:34.459Z,40.70
2017-07-16T16:31:02.019Z,40.80
2017-07-16T16:33:29.835Z,40.20
2017-07-16T16:35:57.393Z,40.50
2017-07-16T16:38:24.937Z,41.20
2017-07-16T16:40:53.343Z,42.40
2017-07-16T16:43:20.914Z,43.20
2017-07-16T16:45:49.258Z,44.90
2017-07-16T16:48:16.839Z,44.40
2017-07-16T16:50:44.363Z,44.70
2017-07-16T16:53:12.000Z,46.40
2017-07-16T16:55:39.525Z,45.20
2017-07-16T16:58:07.821Z,45.30
2017-07-16T17:00:36.188Z,43.90
2017-07-16T17:03:03.817Z,43.70
2017-07-16T17:05:31.342Z,44.90
2017-07-16T17:07:59.003Z,45.10
2017-07-16T17:10:26.516Z,44.40
2017-07-16T17:12:54.025Z,44.60
2017-07-16T17:15:21.593Z,44.40
2017-07-16T17:17:49.162Z,45.90
2017-07-16T17:20:16.681Z,45.50
2017-07-16T17:22:45.001Z,46.10
2017-07-16T17:25:12.668Z,46.00
2017-07-16T17:27:40.184Z,45.20
2017-07-16T17:30:08.583Z,44.80
2017-07-16T17:32:36.164Z,44.70
2017-07-16T17:35:03.803Z,45.50
2017-07-16T17:37:31.361Z,47.40
2017-07-16T17:39:59.688Z,47.20
2017-07-16T17:42:27.211Z,47.20
2017-07-16T17:44:54.731Z,46.70
2017-07-16T17:47:22.342Z,49.20
2017-07-16T17:49:50.087Z,50.80
2017-07-16T17:52:18.882Z,50.50
2017-07-16T17:57:25.848Z,50.70
2017-07-16T17:59:53.595Z,49.50
2017-07-16T18:02:21.921Z,48.70
2017-07-16T18:04:49.589Z,48.80
2017-07-16T18:07:17.112Z,52.80
2017-07-16T18:09:44.627Z,52.10
2017-07-16T18:12:12.189Z,52.60
2017-07-16T18:14:39.707Z,54.20
2017-07-16T18:17:07.986Z,54.80
2017-07-16T18:19:36.408Z,54.00
2017-07-16T18:22:04.007Z,54.00
2017-07-16T18:24:31.552Z,56.70
2017-07-16T18:26:59.105Z,55.70
2017-07-16T18:29:26.637Z,56.80
2017-07-16T18:31:54.154Z,58.10
2017-07-16T18:34:21.717Z,57.20
2017-07-16T18:36:49.296Z,58.20
2017-07-16T18:39:16.845Z,58.40
2017-07-16T18:41:45.239Z,59.20
2017-07-16T18:44:13.522Z,59.60
2017-07-16T18:46:41.319Z,59.60
2017-07-16T18:49:09.740Z,61.00
2017-07-16T18:51:37.273Z,61.10
2017-07-16T18:54:04.799Z,59.30
2017-07-16T18:56:32.377Z,59.50
2017-07-16T18:58:59.960Z,59.00
2017-07-16T19:01:27.499Z,61.40
2017-07-16T19:03:55.094Z,62.10
2017-07-16T19:06:22.627Z,63.60
2017-07-16T19:08:50.183Z,64.10
2017-07-16T19:11:17.708Z,63.50
2017-07-16T19:13:45.276Z,63.40
2017-07-16T19:16:12.812Z,64.10
2017-07-16T19:18:40.353Z,62.90
2017-07-16T19:21:07.912Z,62.70
2017-07-16T19:23:35.443Z,63.00
2017-07-16T19:26:02.972Z,62.00
2017-07-16T19:28:30.534Z,62.70
2017-07-16T19:30:58.083Z,63.80
2017-07-16T19:33:25.643Z,63.00
2017-07-16T19:35:53.927Z,66.20
2017-07-16T19:38:21.533Z,66.20
2017-07-16T19:40:49.046Z,66.30
2017-07-16T19:43:17.325Z,66.50
2017-07-16T19:45:44.889Z,66.40
2017-07-16T19:48:12.405Z,65.70
2017-07-16T19:50:39.980Z,67.40
2017-07-16T19:53:07.539Z,65.90
2017-07-16T19:55:35.089Z,66.10
2017-07-16T19:58:02.600Z,66.40
2017-07-16T20:00:30.198Z,66.60
2017-07-16T20:02:57.778Z,65.10
2017-07-16T20:05:25.301Z,64.80
2017-07-16T20:07:53.023Z,65.10
2017-07-16T20:10:21.342Z,65.80
2017-07-16T20:12:48.862Z,65.80
2017-07-16T20:15:17.146Z,65.40
2017-07-16T20:17:44.707Z,65.30
2017-07-16T20:20:12.224Z,65.60
2017-07-16T20:22:39.737Z,65.50
2017-07-16T20:25:07.281Z,65.00
2017-07-16T20:27:35.593Z,65.30
2017-07-16T20:30:03.141Z,65.30
2017-07-16T20:32:30.656Z,64.90
2017-07-16T20:34:58.165Z,65.40
2017-07-16T20:37:25.792Z,64.30
2017-07-16T20:39:54.245Z,63.60
2017-07-16T20:42:21.784Z,63.40
2017-07-16T20:44:49.294Z,62.50
2017-07-16T20:47:17.651Z,63.10
2017-07-16T20:49:45.206Z,63.10
2017-07-16T20:52:12.721Z,62.40
2017-07-16T20:54:40.273Z,65.30
2017-07-16T20:57:07.796Z,64.40
2017-07-16T20:59:35.332Z,65.00
2017-07-16T21:02:02.884Z,62.90
2017-07-16T21:04:30.436Z,63.00
2017-07-16T21:06:57.977Z,62.80
2017-07-16T21:09:25.520Z,64.50
2017-07-16T21:11:53.212Z,65.20
2017-07-16T21:14:20.772Z,65.20
2017-07-16T21:16:48.295Z,63.40
2017-07-16T21:19:15.814Z,66.10
2017-07-16T21:21:43.379Z,67.00
2017-07-16T21:24:10.888Z,66.90
2017-07-16T21:26:38.416Z,67.40
2017-07-16T21:29:05.959Z,68.70
2017-07-16T21:31:33.541Z,67.40
2017-07-16T21:34:01.857Z,69.20
2017-07-16T21:36:31.208Z,68.30
2017-07-16T21:39:00.595Z,68.50
2017-07-16T21:41:28.808Z,68.60
2017-07-16T21:43:58.119Z,65.70
2017-07-16T21:46:26.370Z,65.60
2017-07-16T21:48:55.823Z,65.60
2017-07-16T21:51:24.414Z,64.90
2017-07-16T21:53:52.522Z,64.60
2017-07-16T21:56:20.878Z,65.20
2017-07-16T21:58:49.829Z,67.00
2017-07-16T22:01:17.951Z,66.90
2017-07-16T22:03:45.893Z,65.50
2017-07-16T22:06:14.082Z,65.20
2017-07-16T22:08:42.079Z,65.40
2017-07-16T22:11:10.276Z,68.80
2017-07-16T22:13:38.435Z,67.30
2017-07-16T22:16:06.849Z,66.90
2017-07-16T22:18:35.062Z,66.80
2017-07-16T22:21:03.050Z,67.20
2017-07-16T22:23:31.137Z,67.90
2017-07-16T22:25:59.413Z,66.50
2017-07-16T22:28:27.554Z,67.20
2017-07-16T22:30:55.647Z,68.30
2017-07-16T22:33:24.340Z,69.30
2017-07-16T22:35:52.263Z,69.30
2017-07-16T22:38:20.322Z,70.60
2017-07-16T22:40:48.349Z,70.50
2017-07-16T22:43:16.419Z,69.10
2017-07-16T22:45:44.637Z,68.20
2017-07-16T22:48:13.134Z,70.20
2017-07-16T22:50:41.208Z,68.20
2017-07-16T22:53:09.251Z,67.50
2017-07-16T22:55:38.087Z,69.60
2017-07-16T22:58:06.275Z,69.10
2017-07-16T23:00:34.182Z,68.70
2017-07-16T23:03:03.000Z,69.20
2017-07-16T23:05:31.323Z,69.20
2017-07-16T23:07:59.467Z,69.90
2017-07-16T23:10:27.511Z,68.80
2017-07-16T23:12:56.402Z,69.50
2017-07-16T23:15:24.439Z,69.40
2017-07-16T23:17:53.053Z,68.80
2017-07-16T23:20:21.019Z,69.00
2017-07-16T23:22:49.674Z,68.20
2017-07-16T23:25:17.785Z,68.20
2017-07-16T23:27:45.841Z,67.90
2017-07-16T23:30:13.690Z,67.80
2017-07-16T23:32:41.941Z,68.10
2017-07-16T23:35:09.827Z,69.30
2017-07-16T23:37:38.682Z,68.80
2017-07-16T23:40:06.787Z,69.90
2017-07-16T23:42:34.869Z,69.30
2017-07-16T23:45:02.956Z,70.30
2017-07-16T23:47:31.852Z,71.30
2017-07-16T23:50:00.052Z,71.10
2017-07-16T23:52:28.074Z,71.10
2017-07-16T23:54:56.228Z,72.80
2017-07-16T23:57:24.168Z,71.40
2017-07-16T23:59:52.203Z,71.10
